sensor_id;sensor_type;location;lat;lon;timestamp;P1;durP1;ratioP1;P2;durP2;ratioP2
39266;SDS011;24967;51.154;13.812;2024-03-17T00:00:47;4.65;;;2.40;;
39266;SDS011;24967;51.154;13.812;2024-03-17T00:03:16;5.85;;;2.33;;
39266;SDS011;24967;51.154;13.812;2024-03-17T00:05:41;4.00;;;2.40;;
39266;SDS011;24967;51.154;13.812;2024-03-17T00:08:11;5.45;;;1.88;;
39266;SDS011;24967;51.154;13.812;2024-03-17T00:10:36;4.68;;;1.98;;
39266;SDS011;24967;51.154;13.812;2024-03-17T00:13:03;6.75;;;2.15;;
39266;SDS011;24967;51.154;13.812;2024-03-17T00:15:29;3.25;;;2.05;;
39266;SDS011;24967;51.154;13.812;2024-03-17T00:17:58;2.88;;;2.10;;
39266;SDS011;24967;51.154;13.812;2024-03-17T00:20:28;4.80;;;3.72;;
39266;SDS011;24967;51.154;13.812;2024-03-17T00:22:56;5.45;;;2.60;;
39266;SDS011;24967;51.154;13.812;2024-03-17T00:25:23;6.68;;;2.50;;
39266;SDS011;24967;51.154;13.812;2024-03-17T00:27:48;4.15;;;2.10;;
39266;SDS011;24967;51.154;13.812;2024-03-17T00:30:16;2.15;;;1.98;;
39266;SDS011;24967;51.154;13.812;2024-03-17T00:32:46;4.97;;;2.22;;
39266;SDS011;24967;51.154;13.812;2024-03-17T00:35:14;7.20;;;2.63;;
39266;SDS011;24967;51.154;13.812;2024-03-17T00:37:47;4.75;;;1.92;;
39266;SDS011;24967;51.154;13.812;2024-03-17T00:40:17;4.30;;;2.17;;
39266;SDS011;24967;51.154;13.812;2024-03-17T00:42:45;8.52;;;2.53;;
39266;SDS011;24967;51.154;13.812;2024-03-17T00:45:11;2.60;;;2.28;;
39266;SDS011;24967;51.154;13.812;2024-03-17T00:47:44;4.70;;;2.38;;
39266;SDS011;24967;51.154;13.812;2024-03-17T00:50:10;2.95;;;2.10;;
39266;SDS011;24967;51.154;13.812;2024-03-17T00:52:37;8.15;;;1.88;;
39266;SDS011;24967;51.154;13.812;2024-03-17T00:55:07;3.55;;;2.00;;
39266;SDS011;24967;51.154;13.812;2024-03-17T00:57:39;4.35;;;2.35;;
39266;SDS011;24967;51.154;13.812;2024-03-17T01:00:04;4.07;;;2.10;;
39266;SDS011;24967;51.154;13.812;2024-03-17T01:02:40;5.95;;;2.45;;
39266;SDS011;24967;51.154;13.812;2024-03-17T01:05:05;5.15;;;2.22;;
39266;SDS011;24967;51.154;13.812;2024-03-17T01:07:36;6.03;;;2.40;;
39266;SDS011;24967;51.154;13.812;2024-03-17T01:10:01;6.63;;;2.38;;
39266;SDS011;24967;51.154;13.812;2024-03-17T01:12:29;4.90;;;2.60;;
39266;SDS011;24967;51.154;13.812;2024-03-17T01:14:58;7.27;;;2.20;;
39266;SDS011;24967;51.154;13.812;2024-03-17T01:17:24;5.50;;;2.60;;
39266;SDS011;24967;51.154;13.812;2024-03-17T01:19:49;4.20;;;2.45;;
39266;SDS011;24967;51.154;13.812;2024-03-17T01:22:19;4.20;;;2.65;;
39266;SDS011;24967;51.154;13.812;2024-03-17T01:24:44;5.53;;;2.70;;
39266;SDS011;24967;51.154;13.812;2024-03-17T01:27:11;2.67;;;2.47;;
39266;SDS011;24967;51.154;13.812;2024-03-17T01:29:43;2.85;;;2.10;;
39266;SDS011;24967;51.154;13.812;2024-03-17T01:32:10;5.22;;;2.45;;
39266;SDS011;24967;51.154;13.812;2024-03-17T01:34:36;5.82;;;2.38;;
39266;SDS011;24967;51.154;13.812;2024-03-17T01:37:02;4.45;;;2.38;;
39266;SDS011;24967;51.154;13.812;2024-03-17T01:39:27;3.60;;;2.30;;
39266;SDS011;24967;51.154;13.812;2024-03-17T01:41:54;8.60;;;2.70;;
39266;SDS011;24967;51.154;13.812;2024-03-17T01:44:21;3.50;;;2.50;;
39266;SDS011;24967;51.154;13.812;2024-03-17T01:46:50;5.10;;;2.33;;
39266;SDS011;24967;51.154;13.812;2024-03-17T01:49:16;5.30;;;3.65;;
39266;SDS011;24967;51.154;13.812;2024-03-17T01:51:43;5.25;;;2.80;;
39266;SDS011;24967;51.154;13.812;2024-03-17T01:54:09;11.68;;;2.97;;
39266;SDS011;24967;51.154;13.812;2024-03-17T01:56:36;5.93;;;2.75;;
39266;SDS011;24967;51.154;13.812;2024-03-17T01:59:02;2.85;;;2.50;;
39266;SDS011;24967;51.154;13.812;2024-03-17T02:01:30;9.05;;;2.75;;
39266;SDS011;24967;51.154;13.812;2024-03-17T02:03:58;3.55;;;2.90;;
39266;SDS011;24967;51.154;13.812;2024-03-17T02:06:24;5.15;;;3.03;;
39266;SDS011;24967;51.154;13.812;2024-03-17T02:08:50;5.78;;;2.40;;
39266;SDS011;24967;51.154;13.812;2024-03-17T02:11:37;7.30;;;3.13;;
39266;SDS011;24967;51.154;13.812;2024-03-17T02:14:03;5.18;;;2.75;;
39266;SDS011;24967;51.154;13.812;2024-03-17T02:16:31;5.40;;;2.90;;
39266;SDS011;24967;51.154;13.812;2024-03-17T02:18:58;4.90;;;2.85;;
39266;SDS011;24967;51.154;13.812;2024-03-17T02:21:24;5.43;;;3.00;;
39266;SDS011;24967;51.154;13.812;2024-03-17T02:23:53;6.32;;;3.38;;
39266;SDS011;24967;51.154;13.812;2024-03-17T02:26:20;9.48;;;2.70;;
39266;SDS011;24967;51.154;13.812;2024-03-17T02:28:46;5.97;;;2.65;;
39266;SDS011;24967;51.154;13.812;2024-03-17T02:31:14;3.90;;;2.72;;
39266;SDS011;24967;51.154;13.812;2024-03-17T02:33:41;7.07;;;2.80;;
39266;SDS011;24967;51.154;13.812;2024-03-17T02:36:08;4.43;;;2.22;;
39266;SDS011;24967;51.154;13.812;2024-03-17T02:38:34;8.77;;;3.42;;
39266;SDS011;24967;51.154;13.812;2024-03-17T02:41:20;7.55;;;2.83;;
39266;SDS011;24967;51.154;13.812;2024-03-17T02:43:47;5.82;;;2.65;;
39266;SDS011;24967;51.154;13.812;2024-03-17T02:46:14;6.53;;;2.60;;
39266;SDS011;24967;51.154;13.812;2024-03-17T02:48:43;5.88;;;2.80;;
39266;SDS011;24967;51.154;13.812;2024-03-17T02:51:13;6.93;;;2.72;;
39266;SDS011;24967;51.154;13.812;2024-03-17T02:53:40;6.07;;;2.97;;
39266;SDS011;24967;51.154;13.812;2024-03-17T02:56:07;5.72;;;2.83;;
39266;SDS011;24967;51.154;13.812;2024-03-17T02:58:35;3.53;;;2.90;;
39266;SDS011;24967;51.154;13.812;2024-03-17T03:01:01;5.30;;;3.03;;
39266;SDS011;24967;51.154;13.812;2024-03-17T03:03:29;6.03;;;3.03;;
39266;SDS011;24967;51.154;13.812;2024-03-17T03:05:55;7.60;;;2.75;;
39266;SDS011;24967;51.154;13.812;2024-03-17T03:08:23;4.00;;;2.85;;
39266;SDS011;24967;51.154;13.812;2024-03-17T03:10:51;6.88;;;2.42;;
39266;SDS011;24967;51.154;13.812;2024-03-17T03:13:17;7.82;;;2.63;;
39266;SDS011;24967;51.154;13.812;2024-03-17T03:15:45;5.15;;;3.13;;
39266;SDS011;24967;51.154;13.812;2024-03-17T03:18:12;3.72;;;2.75;;
39266;SDS011;24967;51.154;13.812;2024-03-17T03:20:39;9.68;;;6.10;;
39266;SDS011;24967;51.154;13.812;2024-03-17T03:23:05;9.00;;;4.43;;
39266;SDS011;24967;51.154;13.812;2024-03-17T03:25:32;5.07;;;3.60;;
39266;SDS011;24967;51.154;13.812;2024-03-17T03:27:59;5.43;;;3.53;;
39266;SDS011;24967;51.154;13.812;2024-03-17T03:30:27;6.28;;;2.92;;
39266;SDS011;24967;51.154;13.812;2024-03-17T03:32:54;5.75;;;3.78;;
39266;SDS011;24967;51.154;13.812;2024-03-17T03:35:21;3.47;;;2.60;;
39266;SDS011;24967;51.154;13.812;2024-03-17T03:37:49;5.07;;;2.55;;
39266;SDS011;24967;51.154;13.812;2024-03-17T03:40:16;4.07;;;2.70;;
39266;SDS011;24967;51.154;13.812;2024-03-17T03:42:43;6.30;;;3.40;;
39266;SDS011;24967;51.154;13.812;2024-03-17T03:45:09;3.92;;;2.95;;
39266;SDS011;24967;51.154;13.812;2024-03-17T03:47:37;7.13;;;2.80;;
39266;SDS011;24967;51.154;13.812;2024-03-17T03:50:05;5.60;;;3.40;;
39266;SDS011;24967;51.154;13.812;2024-03-17T03:52:34;5.10;;;3.33;;
39266;SDS011;24967;51.154;13.812;2024-03-17T03:55:00;5.70;;;2.85;;
39266;SDS011;24967;51.154;13.812;2024-03-17T03:57:29;6.32;;;3.30;;
39266;SDS011;24967;51.154;13.812;2024-03-17T03:59:57;6.75;;;3.60;;
39266;SDS011;24967;51.154;13.812;2024-03-17T04:02:23;3.80;;;3.10;;
39266;SDS011;24967;51.154;13.812;2024-03-17T04:04:50;5.20;;;3.30;;
39266;SDS011;24967;51.154;13.812;2024-03-17T04:07:18;11.25;;;3.55;;
39266;SDS011;24967;51.154;13.812;2024-03-17T04:09:44;10.52;;;3.30;;
39266;SDS011;24967;51.154;13.812;2024-03-17T04:12:11;6.38;;;3.10;;
39266;SDS011;24967;51.154;13.812;2024-03-17T04:14:37;5.22;;;3.55;;
39266;SDS011;24967;51.154;13.812;2024-03-17T04:17:03;7.35;;;3.17;;
39266;SDS011;24967;51.154;13.812;2024-03-17T04:19:31;6.90;;;3.30;;
39266;SDS011;24967;51.154;13.812;2024-03-17T04:21:57;7.78;;;3.60;;
39266;SDS011;24967;51.154;13.812;2024-03-17T04:24:25;4.53;;;3.45;;
39266;SDS011;24967;51.154;13.812;2024-03-17T04:26:52;6.45;;;3.53;;
39266;SDS011;24967;51.154;13.812;2024-03-17T04:29:18;5.90;;;3.28;;
39266;SDS011;24967;51.154;13.812;2024-03-17T04:31:45;4.38;;;3.13;;
39266;SDS011;24967;51.154;13.812;2024-03-17T04:34:13;6.68;;;3.58;;
39266;SDS011;24967;51.154;13.812;2024-03-17T04:36:40;4.20;;;3.00;;
39266;SDS011;24967;51.154;13.812;2024-03-17T04:39:06;6.05;;;3.05;;
39266;SDS011;24967;51.154;13.812;2024-03-17T04:41:34;7.95;;;3.40;;
39266;SDS011;24967;51.154;13.812;2024-03-17T04:44:03;5.75;;;3.38;;
39266;SDS011;24967;51.154;13.812;2024-03-17T04:46:31;8.80;;;3.83;;
39266;SDS011;24967;51.154;13.812;2024-03-17T04:48:57;7.85;;;3.08;;
39266;SDS011;24967;51.154;13.812;2024-03-17T04:51:24;3.90;;;3.08;;
39266;SDS011;24967;51.154;13.812;2024-03-17T04:53:51;4.95;;;3.38;;
39266;SDS011;24967;51.154;13.812;2024-03-17T04:56:17;6.60;;;3.35;;
39266;SDS011;24967;51.154;13.812;2024-03-17T04:58:44;5.68;;;3.78;;
39266;SDS011;24967;51.154;13.812;2024-03-17T05:01:11;5.03;;;3.45;;
39266;SDS011;24967;51.154;13.812;2024-03-17T05:03:38;6.80;;;3.90;;
39266;SDS011;24967;51.154;13.812;2024-03-17T05:06:05;8.88;;;3.45;;
39266;SDS011;24967;51.154;13.812;2024-03-17T05:08:32;5.90;;;3.30;;
39266;SDS011;24967;51.154;13.812;2024-03-17T05:10:59;6.35;;;3.78;;
39266;SDS011;24967;51.154;13.812;2024-03-17T05:13:29;4.63;;;3.77;;
39266;SDS011;24967;51.154;13.812;2024-03-17T05:15:57;6.25;;;3.80;;
39266;SDS011;24967;51.154;13.812;2024-03-17T05:18:25;7.05;;;4.13;;
39266;SDS011;24967;51.154;13.812;2024-03-17T05:20:59;8.43;;;4.63;;
39266;SDS011;24967;51.154;13.812;2024-03-17T05:23:26;8.50;;;4.35;;
39266;SDS011;24967;51.154;13.812;2024-03-17T05:25:54;8.45;;;4.63;;
39266;SDS011;24967;51.154;13.812;2024-03-17T05:28:20;8.25;;;4.03;;
39266;SDS011;24967;51.154;13.812;2024-03-17T05:30:47;6.55;;;3.45;;
39266;SDS011;24967;51.154;13.812;2024-03-17T05:33:16;8.13;;;4.28;;
39266;SDS011;24967;51.154;13.812;2024-03-17T05:35:48;7.97;;;4.22;;
39266;SDS011;24967;51.154;13.812;2024-03-17T05:38:15;8.52;;;3.90;;
39266;SDS011;24967;51.154;13.812;2024-03-17T05:40:41;7.57;;;3.80;;
39266;SDS011;24967;51.154;13.812;2024-03-17T05:43:07;6.78;;;4.32;;
39266;SDS011;24967;51.154;13.812;2024-03-17T05:45:34;8.55;;;4.00;;
39266;SDS011;24967;51.154;13.812;2024-03-17T05:48:00;7.50;;;4.13;;
39266;SDS011;24967;51.154;13.812;2024-03-17T05:50:31;6.80;;;3.75;;
39266;SDS011;24967;51.154;13.812;2024-03-17T05:52:58;4.75;;;3.50;;
39266;SDS011;24967;51.154;13.812;2024-03-17T05:55:24;9.70;;;4.38;;
39266;SDS011;24967;51.154;13.812;2024-03-17T05:57:51;9.82;;;4.03;;
39266;SDS011;24967;51.154;13.812;2024-03-17T06:00:19;6.25;;;3.65;;
39266;SDS011;24967;51.154;13.812;2024-03-17T06:02:45;7.82;;;3.28;;
39266;SDS011;24967;51.154;13.812;2024-03-17T06:05:12;9.93;;;3.33;;
39266;SDS011;24967;51.154;13.812;2024-03-17T06:07:40;4.05;;;3.17;;
39266;SDS011;24967;51.154;13.812;2024-03-17T06:10:07;4.95;;;3.28;;
39266;SDS011;24967;51.154;13.812;2024-03-17T06:12:34;5.18;;;3.33;;
39266;SDS011;24967;51.154;13.812;2024-03-17T06:15:02;7.82;;;3.38;;
39266;SDS011;24967;51.154;13.812;2024-03-17T06:17:28;6.47;;;2.88;;
39266;SDS011;24967;51.154;13.812;2024-03-17T06:19:59;8.17;;;3.20;;
39266;SDS011;24967;51.154;13.812;2024-03-17T06:22:28;7.40;;;3.22;;
39266;SDS011;24967;51.154;13.812;2024-03-17T06:24:56;9.52;;;2.97;;
39266;SDS011;24967;51.154;13.812;2024-03-17T06:27:22;7.30;;;3.42;;
39266;SDS011;24967;51.154;13.812;2024-03-17T06:29:49;6.68;;;3.15;;
39266;SDS011;24967;51.154;13.812;2024-03-17T06:32:15;8.63;;;3.60;;
39266;SDS011;24967;51.154;13.812;2024-03-17T06:34:42;6.40;;;2.65;;
39266;SDS011;24967;51.154;13.812;2024-03-17T06:37:09;3.80;;;2.70;;
39266;SDS011;24967;51.154;13.812;2024-03-17T06:39:35;9.80;;;3.53;;
39266;SDS011;24967;51.154;13.812;2024-03-17T06:42:03;4.78;;;2.95;;
